sensor_id;sensor_type;location;lat;lon;timestamp;temperature;humidity
9151;DHT22;4610;50.006;7.490;2023-02-28T00:00:24;-0.60;99.90
9151;DHT22;4610;50.006;7.490;2023-02-28T00:02:51;-0.50;99.90
9151;DHT22;4610;50.006;7.490;2023-02-28T00:05:19;-0.50;99.90
9151;DHT22;4610;50.006;7.490;2023-02-28T00:07:48;-0.50;99.90
9151;DHT22;4610;50.006;7.490;2023-02-28T00:10:18;-0.50;99.90
9151;DHT22;4610;50.006;7.490;2023-02-28T00:12:46;-0.50;99.90
9151;DHT22;4610;50.006;7.490;2023-02-28T00:15:13;-0.60;99.90
9151;DHT22;4610;50.006;7.490;2023-02-28T00:17:40;-0.60;99.90
9151;DHT22;4610;50.006;7.490;2023-02-28T00:20:07;-0.60;99.90
9151;DHT22;4610;50.006;7.490;2023-02-28T00:22:36;-0.70;99.90
9151;DHT22;4610;50.006;7.490;2023-02-28T00:25:04;-0.80;99.90
9151;DHT22;4610;50.006;7.490;2023-02-28T00:27:33;-0.90;99.90
9151;DHT22;4610;50.006;7.490;2023-02-28T00:30:01;-0.90;99.90
9151;DHT22;4610;50.006;7.490;2023-02-28T00:32:27;-0.90;99.90
9151;DHT22;4610;50.006;7.490;2023-02-28T00:34:55;-1.00;99.90
9151;DHT22;4610;50.006;7.490;2023-02-28T00:37:22;-1.00;99.90
9151;DHT22;4610;50.006;7.490;2023-02-28T00:39:49;-1.10;99.90
9151;DHT22;4610;50.006;7.490;2023-02-28T00:42:16;-1.10;99.90
9151;DHT22;4610;50.006;7.490;2023-02-28T00:44:44;-1.20;99.90
9151;DHT22;4610;50.006;7.490;2023-02-28T00:47:10;-1.30;99.90
9151;DHT22;4610;50.006;7.490;2023-02-28T00:49:37;-1.30;99.90
9151;DHT22;4610;50.006;7.490;2023-02-28T00:52:04;-1.30;99.90
9151;DHT22;4610;50.006;7.490;2023-02-28T00:54:31;-1.30;99.90
9151;DHT22;4610;50.006;7.490;2023-02-28T00:56:57;-1.30;99.90
9151;DHT22;4610;50.006;7.490;2023-02-28T00:59:24;-1.40;99.90
9151;DHT22;4610;50.006;7.490;2023-02-28T01:01:52;-1.30;99.90
9151;DHT22;4610;50.006;7.490;2023-02-28T01:04:19;-1.20;99.90
9151;DHT22;4610;50.006;7.490;2023-02-28T01:06:46;-1.20;99.90
9151;DHT22;4610;50.006;7.490;2023-02-28T01:09:12;-1.10;99.90
9151;DHT22;4610;50.006;7.490;2023-02-28T01:11:39;-1.10;99.90
9151;DHT22;4610;50.006;7.490;2023-02-28T01:14:12;-1.10;99.90
9151;DHT22;4610;50.006;7.490;2023-02-28T01:16:40;-1.00;99.90
9151;DHT22;4610;50.006;7.490;2023-02-28T01:19:08;-1.00;99.90
9151;DHT22;4610;50.006;7.490;2023-02-28T01:21:35;-1.00;99.90
9151;DHT22;4610;50.006;7.490;2023-02-28T01:24:02;-1.00;99.90
9151;DHT22;4610;50.006;7.490;2023-02-28T01:26:29;-1.00;99.90
9151;DHT22;4610;50.006;7.490;2023-02-28T01:28:56;-1.00;99.90
9151;DHT22;4610;50.006;7.490;2023-02-28T01:31:24;-1.10;99.90
9151;DHT22;4610;50.006;7.490;2023-02-28T01:33:50;-1.10;99.90
9151;DHT22;4610;50.006;7.490;2023-02-28T01:36:20;-1.20;99.90
9151;DHT22;4610;50.006;7.490;2023-02-28T01:38:47;-1.10;99.90
9151;DHT22;4610;50.006;7.490;2023-02-28T01:41:17;-1.10;99.90
9151;DHT22;4610;50.006;7.490;2023-02-28T01:44:00;-1.10;99.90
9151;DHT22;4610;50.006;7.490;2023-02-28T01:46:29;-1.10;99.90
9151;DHT22;4610;50.006;7.490;2023-02-28T01:49:00;-1.10;99.90
9151;DHT22;4610;50.006;7.490;2023-02-28T01:51:34;-1.20;99.90
9151;DHT22;4610;50.006;7.490;2023-02-28T01:54:03;-1.30;99.90
9151;DHT22;4610;50.006;7.490;2023-02-28T01:56:35;-1.20;99.90
9151;DHT22;4610;50.006;7.490;2023-02-28T01:59:02;-1.20;99.90
9151;DHT22;4610;50.006;7.490;2023-02-28T02:01:30;-1.20;99.90
9151;DHT22;4610;50.006;7.490;2023-02-28T02:04:00;-1.30;99.90
9151;DHT22;4610;50.006;7.490;2023-02-28T02:06:33;-1.30;99.90
9151;DHT22;4610;50.006;7.490;2023-02-28T02:09:00;-1.40;99.90
9151;DHT22;4610;50.006;7.490;2023-02-28T02:11:28;-1.50;99.90
9151;DHT22;4610;50.006;7.490;2023-02-28T02:14:31;-1.70;99.90
9151;DHT22;4610;50.006;7.490;2023-02-28T02:17:09;-1.80;99.90
9151;DHT22;4610;50.006;7.490;2023-02-28T02:25:45;-2.10;99.90
9151;DHT22;4610;50.006;7.490;2023-02-28T02:28:44;-2.10;99.90
9151;DHT22;4610;50.006;7.490;2023-02-28T02:31:33;-2.10;99.90
9151;DHT22;4610;50.006;7.490;2023-02-28T02:34:39;-2.10;99.90
9151;DHT22;4610;50.006;7.490;2023-02-28T02:37:13;-2.10;99.90
9151;DHT22;4610;50.006;7.490;2023-02-28T02:39:48;-2.10;99.90
9151;DHT22;4610;50.006;7.490;2023-02-28T02:42:21;-2.20;99.90
9151;DHT22;4610;50.006;7.490;2023-02-28T02:44:55;-2.20;99.90
9151;DHT22;4610;50.006;7.490;2023-02-28T02:47:25;-2.10;99.90
9151;DHT22;4610;50.006;7.490;2023-02-28T02:49:56;-2.10;99.90
9151;DHT22;4610;50.006;7.490;2023-02-28T02:52:27;-2.00;99.90
9151;DHT22;4610;50.006;7.490;2023-02-28T02:54:56;-2.00;99.90
9151;DHT22;4610;50.006;7.490;2023-02-28T02:57:27;-1.90;99.90
9151;DHT22;4610;50.006;7.490;2023-02-28T02:59:57;-1.80;99.90
9151;DHT22;4610;50.006;7.490;2023-02-28T03:02:23;-1.80;99.90
9151;DHT22;4610;50.006;7.490;2023-02-28T03:04:56;-1.90;99.90
9151;DHT22;4610;50.006;7.490;2023-02-28T03:07:27;-1.80;99.90
9151;DHT22;4610;50.006;7.490;2023-02-28T03:09:55;-1.70;99.90
9151;DHT22;4610;50.006;7.490;2023-02-28T03:12:24;-1.80;99.90
9151;DHT22;4610;50.006;7.490;2023-02-28T03:15:02;-1.90;99.90
9151;DHT22;4610;50.006;7.490;2023-02-28T03:18:00;-1.90;99.90
9151;DHT22;4610;50.006;7.490;2023-02-28T03:20:36;-2.00;99.90
9151;DHT22;4610;50.006;7.490;2023-02-28T03:23:13;-2.00;99.90
9151;DHT22;4610;50.006;7.490;2023-02-28T03:25:53;-2.10;99.90
9151;DHT22;4610;50.006;7.490;2023-02-28T03:28:30;-2.00;99.90
9151;DHT22;4610;50.006;7.490;2023-02-28T06:12:36;-2.50;99.90
9151;DHT22;4610;50.006;7.490;2023-02-28T06:15:04;-2.40;99.90
9151;DHT22;4610;50.006;7.490;2023-02-28T06:17:31;-1.20;99.90
9151;DHT22;4610;50.006;7.490;2023-02-28T06:19:58;-1.40;99.90
9151;DHT22;4610;50.006;7.490;2023-02-28T06:22:24;-1.70;99.90
9151;DHT22;4610;50.006;7.490;2023-02-28T06:24:51;-2.00;99.90
9151;DHT22;4610;50.006;7.490;2023-02-28T06:27:20;-2.20;99.90
9151;DHT22;4610;50.006;7.490;2023-02-28T06:29:49;-2.30;99.90
9151;DHT22;4610;50.006;7.490;2023-02-28T06:32:15;-2.30;99.90
9151;DHT22;4610;50.006;7.490;2023-02-28T06:34:42;-2.40;99.90
9151;DHT22;4610;50.006;7.490;2023-02-28T06:37:09;-2.40;99.90
9151;DHT22;4610;50.006;7.490;2023-02-28T06:39:36;-2.20;99.90
9151;DHT22;4610;50.006;7.490;2023-02-28T06:42:03;-1.80;99.90
9151;DHT22;4610;50.006;7.490;2023-02-28T06:44:30;-1.30;99.90
9151;DHT22;4610;50.006;7.490;2023-02-28T06:47:02;-0.80;99.90
9151;DHT22;4610;50.006;7.490;2023-02-28T06:49:29;-0.10;99.90
9151;DHT22;4610;50.006;7.490;2023-02-28T06:51:56;-0.20;99.90
9151;DHT22;4610;50.006;7.490;2023-02-28T06:54:23;-0.60;99.90
9151;DHT22;4610;50.006;7.490;2023-02-28T06:56:50;-0.80;99.90
9151;DHT22;4610;50.006;7.490;2023-02-28T06:59:17;-0.20;99.90
9151;DHT22;4610;50.006;7.490;2023-02-28T07:01:44;0.90;99.90
9151;DHT22;4610;50.006;7.490;2023-02-28T07:04:12;2.00;99.90
9151;DHT22;4610;50.006;7.490;2023-02-28T07:06:39;2.80;99.90
9151;DHT22;4610;50.006;7.490;2023-02-28T07:09:06;3.40;99.90
9151;DHT22;4610;50.006;7.490;2023-02-28T07:11:33;4.00;99.90
9151;DHT22;4610;50.006;7.490;2023-02-28T07:13:59;4.70;99.90
9151;DHT22;4610;50.006;7.490;2023-02-28T07:16:26;4.80;99.90
9151;DHT22;4610;50.006;7.490;2023-02-28T07:18:54;3.90;99.90
9151;DHT22;4610;50.006;7.490;2023-02-28T07:21:22;3.00;99.90
9151;DHT22;4610;50.006;7.490;2023-02-28T07:23:49;2.30;99.90
9151;DHT22;4610;50.006;7.490;2023-02-28T07:26:18;2.10;99.90
9151;DHT22;4610;50.006;7.490;2023-02-28T07:28:46;2.50;99.90
9151;DHT22;4610;50.006;7.490;2023-02-28T07:31:14;2.70;99.90
9151;DHT22;4610;50.006;7.490;2023-02-28T07:33:41;2.50;99.90
9151;DHT22;4610;50.006;7.490;2023-02-28T07:36:10;2.20;99.90
9151;DHT22;4610;50.006;7.490;2023-02-28T07:38:42;1.90;99.90
9151;DHT22;4610;50.006;7.490;2023-02-28T07:41:09;1.40;99.90
9151;DHT22;4610;50.006;7.490;2023-02-28T07:43:36;1.00;99.90
9151;DHT22;4610;50.006;7.490;2023-02-28T07:46:04;0.90;99.90
9151;DHT22;4610;50.006;7.490;2023-02-28T07:48:31;0.60;99.90
9151;DHT22;4610;50.006;7.490;2023-02-28T07:50:59;0.60;99.90
9151;DHT22;4610;50.006;7.490;2023-02-28T07:53:26;0.60;99.90
9151;DHT22;4610;50.006;7.490;2023-02-28T07:55:56;0.60;99.90
9151;DHT22;4610;50.006;7.490;2023-02-28T07:58:23;0.70;99.90
9151;DHT22;4610;50.006;7.490;2023-02-28T08:00:50;0.70;99.90
9151;DHT22;4610;50.006;7.490;2023-02-28T08:03:17;1.80;99.90
9151;DHT22;4610;50.006;7.490;2023-02-28T08:05:45;1.80;99.90
9151;DHT22;4610;50.006;7.490;2023-02-28T08:08:12;1.60;99.90
9151;DHT22;4610;50.006;7.490;2023-02-28T08:10:38;1.60;99.90
9151;DHT22;4610;50.006;7.490;2023-02-28T08:13:07;1.50;99.90
9151;DHT22;4610;50.006;7.490;2023-02-28T08:15:33;1.50;99.90
9151;DHT22;4610;50.006;7.490;2023-02-28T08:18:00;1.80;99.90
9151;DHT22;4610;50.006;7.490;2023-02-28T08:20:27;2.20;99.90
9151;DHT22;4610;50.006;7.490;2023-02-28T08:22:54;2.60;99.90
9151;DHT22;4610;50.006;7.490;2023-02-28T08:25:21;2.90;99.90
9151;DHT22;4610;50.006;7.490;2023-02-28T08:27:50;3.10;99.90
9151;DHT22;4610;50.006;7.490;2023-02-28T08:30:19;3.30;99.90
9151;DHT22;4610;50.006;7.490;2023-02-28T08:32:46;4.50;99.90
9151;DHT22;4610;50.006;7.490;2023-02-28T08:35:13;6.10;99.00
9151;DHT22;4610;50.006;7.490;2023-02-28T08:37:40;6.00;98.60
9151;DHT22;4610;50.006;7.490;2023-02-28T08:40:08;4.90;98.30
9151;DHT22;4610;50.006;7.490;2023-02-28T08:42:35;4.10;98.50
9151;DHT22;4610;50.006;7.490;2023-02-28T08:45:02;3.80;99.10
9151;DHT22;4610;50.006;7.490;2023-02-28T08:47:30;3.60;99.90
9151;DHT22;4610;50.006;7.490;2023-02-28T08:49:57;4.50;99.30
9151;DHT22;4610;50.006;7.490;2023-02-28T08:52:24;5.70;97.90
9151;DHT22;4610;50.006;7.490;2023-02-28T08:54:51;6.70;96.10
9151;DHT22;4610;50.006;7.490;2023-02-28T08:57:17;6.70;93.90
9151;DHT22;4610;50.006;7.490;2023-02-28T08:59:44;7.10;94.70
9151;DHT22;4610;50.006;7.490;2023-02-28T09:02:13;8.00;98.10
9151;DHT22;4610;50.006;7.490;2023-02-28T09:04:41;8.80;97.30
9151;DHT22;4610;50.006;7.490;2023-02-28T09:07:11;9.30;96.90
9151;DHT22;4610;50.006;7.490;2023-02-28T09:09:38;9.00;95.90
9151;DHT22;4610;50.006;7.490;2023-02-28T09:12:19;8.40;95.20
9151;DHT22;4610;50.006;7.490;2023-02-28T09:14:46;7.00;94.20
9151;DHT22;4610;50.006;7.490;2023-02-28T09:17:12;5.00;94.60
9151;DHT22;4610;50.006;7.490;2023-02-28T09:19:40;4.30;93.70
9151;DHT22;4610;50.006;7.490;2023-02-28T09:22:08;4.30;94.40
9151;DHT22;4610;50.006;7.490;2023-02-28T09:24:36;3.90;93.90
9151;DHT22;4610;50.006;7.490;2023-02-28T09:27:03;3.70;94.90
9151;DHT22;4610;50.006;7.490;2023-02-28T09:29:30;3.30;95.20
9151;DHT22;4610;50.006;7.490;2023-02-28T09:31:56;3.00;95.60
9151;DHT22;4610;50.006;7.490;2023-02-28T09:34:24;2.90;95.70
9151;DHT22;4610;50.006;7.490;2023-02-28T09:36:52;2.90;96.10
9151;DHT22;4610;50.006;7.490;2023-02-28T09:39:20;2.90;96.30
9151;DHT22;4610;50.006;7.490;2023-02-28T09:41:50;2.80;96.30
9151;DHT22;4610;50.006;7.490;2023-02-28T09:44:23;2.90;96.40
9151;DHT22;4610;50.006;7.490;2023-02-28T09:46:55;2.90;96.80
9151;DHT22;4610;50.006;7.490;2023-02-28T09:49:31;3.20;97.00
9151;DHT22;4610;50.006;7.490;2023-02-28T09:52:02;3.30;96.70
9151;DHT22;4610;50.006;7.490;2023-02-28T09:54:32;3.50;96.40
9151;DHT22;4610;50.006;7.490;2023-02-28T09:57:04;3.60;96.40
9151;DHT22;4610;50.006;7.490;2023-02-28T10:02:38;3.00;95.90
9151;DHT22;4610;50.006;7.490;2023-02-28T10:05:09;2.60;96.00
9151;DHT22;4610;50.006;7.490;2023-02-28T10:07:50;2.40;99.10
9151;DHT22;4610;50.006;7.490;2023-02-28T10:10:24;2.40;96.20
9151;DHT22;4610;50.006;7.490;2023-02-28T10:12:55;2.30;96.40
9151;DHT22;4610;50.006;7.490;2023-02-28T10:15:24;2.50;98.50
9151;DHT22;4610;50.006;7.490;2023-02-28T10:17:56;2.30;97.90
9151;DHT22;4610;50.006;7.490;2023-02-28T10:20:25;2.30;96.90
9151;DHT22;4610;50.006;7.490;2023-02-28T10:23:02;2.30;96.50
9151;DHT22;4610;50.006;7.490;2023-02-28T10:25:34;2.20;97.10
9151;DHT22;4610;50.006;7.490;2023-02-28T10:28:09;2.40;97.10
9151;DHT22;4610;50.006;7.490;2023-02-28T10:30:40;2.80;96.40
9151;DHT22;4610;50.006;7.490;2023-02-28T10:33:18;2.90;96.80
9151;DHT22;4610;50.006;7.490;2023-02-28T10:35:45;3.00;96.30
9151;DHT22;4610;50.006;7.490;2023-02-28T10:38:18;3.10;96.20
9151;DHT22;4610;50.006;7.490;2023-02-28T10:40:46;3.20;95.90
9151;DHT22;4610;50.006;7.490;2023-02-28T10:43:23;3.30;96.40
9151;DHT22;4610;50.006;7.490;2023-02-28T10:45:59;3.60;95.80
9151;DHT22;4610;50.006;7.490;2023-02-28T10:48:36;4.00;95.80
9151;DHT22;4610;50.006;7.490;2023-02-28T10:51:05;4.50;95.30
9151;DHT22;4610;50.006;7.490;2023-02-28T10:53:37;4.70;94.50
9151;DHT22;4610;50.006;7.490;2023-02-28T10:56:12;4.00;94.90
9151;DHT22;4610;50.006;7.490;2023-02-28T10:58:49;3.80;95.80
9151;DHT22;4610;50.006;7.490;2023-02-28T11:01:18;4.10;94.20
9151;DHT22;4610;50.006;7.490;2023-02-28T11:03:46;3.90;94.20
9151;DHT22;4610;50.006;7.490;2023-02-28T11:06:16;3.20;93.90
9151;DHT22;4610;50.006;7.490;2023-02-28T11:08:50;2.80;94.90
9151;DHT22;4610;50.006;7.490;2023-02-28T11:11:18;2.50;94.90
9151;DHT22;4610;50.006;7.490;2023-02-28T11:13:47;2.40;95.50
9151;DHT22;4610;50.006;7.490;2023-02-28T11:16:16;2.50;94.90
9151;DHT22;4610;50.006;7.490;2023-02-28T11:18:47;2.50;94.90
9151;DHT22;4610;50.006;7.490;2023-02-28T11:21:23;2.10;94.90
9151;DHT22;4610;50.006;7.490;2023-02-28T11:24:05;2.40;95.30
9151;DHT22;4610;50.006;7.490;2023-02-28T11:26:41;2.70;95.20
9151;DHT22;4610;50.006;7.490;2023-02-28T11:29:17;3.10;95.40
9151;DHT22;4610;50.006;7.490;2023-02-28T11:32:01;3.10;95.10
9151;DHT22;4610;50.006;7.490;2023-02-28T11:34:29;3.00;95.40
9151;DHT22;4610;50.006;7.490;2023-02-28T11:36:57;3.10;95.20
9151;DHT22;4610;50.006;7.490;2023-02-28T11:39:27;3.00;95.20
9151;DHT22;4610;50.006;7.490;2023-02-28T11:42:11;3.20;95.70
9151;DHT22;4610;50.006;7.490;2023-02-28T11:44:49;3.60;94.90
9151;DHT22;4610;50.006;7.490;2023-02-28T11:47:28;3.90;94.50
9151;DHT22;4610;50.006;7.490;2023-02-28T11:50:13;4.00;93.90
9151;DHT22;4610;50.006;7.490;2023-02-28T11:52:47;3.90;93.00
9151;DHT22;4610;50.006;7.490;2023-02-28T11:55:20;3.40;93.50
9151;DHT22;4610;50.006;7.490;2023-02-28T11:58:17;3.30;93.50
9151;DHT22;4610;50.006;7.490;2023-02-28T12:01:03;3.00;94.20
9151;DHT22;4610;50.006;7.490;2023-02-28T12:03:43;3.10;94.80
9151;DHT22;4610;50.006;7.490;2023-02-28T12:06:18;3.20;95.30
9151;DHT22;4610;50.006;7.490;2023-02-28T12:09:01;3.40;94.50
9151;DHT22;4610;50.006;7.490;2023-02-28T12:11:48;3.30;94.30
9151;DHT22;4610;50.006;7.490;2023-02-28T12:14:42;3.60;95.00
9151;DHT22;4610;50.006;7.490;2023-02-28T12:17:20;3.60;94.10
9151;DHT22;4610;50.006;7.490;2023-02-28T12:19:53;3.70;94.40
9151;DHT22;4610;50.006;7.490;2023-02-28T12:22:29;3.80;93.70
9151;DHT22;4610;50.006;7.490;2023-02-28T12:25:35;3.40;94.40
9151;DHT22;4610;50.006;7.490;2023-02-28T12:28:08;3.40;94.10
9151;DHT22;4610;50.006;7.490;2023-02-28T12:30:39;3.50;93.50
9151;DHT22;4610;50.006;7.490;2023-02-28T12:33:10;3.50;93.90
9151;DHT22;4610;50.006;7.490;2023-02-28T12:35:43;3.50;94.90
9151;DHT22;4610;50.006;7.490;2023-02-28T12:38:15;3.40;94.80
9151;DHT22;4610;50.006;7.490;2023-02-28T12:40:48;3.60;95.10
9151;DHT22;4610;50.006;7.490;2023-02-28T12:43:18;3.80;95.10
9151;DHT22;4610;50.006;7.490;2023-02-28T12:45:49;3.70;94.10
9151;DHT22;4610;50.006;7.490;2023-02-28T12:48:22;3.50;94.10
9151;DHT22;4610;50.006;7.490;2023-02-28T12:50:50;3.60;94.90
9151;DHT22;4610;50.006;7.490;2023-02-28T12:53:24;3.80;95.40
9151;DHT22;4610;50.006;7.490;2023-02-28T12:56:01;3.80;94.70
9151;DHT22;4610;50.006;7.490;2023-02-28T12:58:34;3.80;94.70
9151;DHT22;4610;50.006;7.490;2023-02-28T13:01:20;3.80;94.70
9151;DHT22;4610;50.006;7.490;2023-02-28T13:04:28;3.80;94.50
9151;DHT22;4610;50.006;7.490;2023-02-28T13:07:25;3.90;95.70
9151;DHT22;4610;50.006;7.490;2023-02-28T13:09:59;3.90;94.80
9151;DHT22;4610;50.006;7.490;2023-02-28T13:12:26;3.80;94.70
9151;DHT22;4610;50.006;7.490;2023-02-28T13:15:05;3.80;95.00
9151;DHT22;4610;50.006;7.490;2023-02-28T13:17:38;3.90;94.70
9151;DHT22;4610;50.006;7.490;2023-02-28T13:20:15;3.80;95.00
9151;DHT22;4610;50.006;7.490;2023-02-28T13:22:45;3.80;94.50
9151;DHT22;4610;50.006;7.490;2023-02-28T13:31:25;3.60;94.70
9151;DHT22;4610;50.006;7.490;2023-02-28T13:34:05;3.60;95.00
9151;DHT22;4610;50.006;7.490;2023-02-28T13:36:33;3.70;95.10
9151;DHT22;4610;50.006;7.490;2023-02-28T13:39:00;3.70;95.30
9151;DHT22;4610;50.006;7.490;2023-02-28T13:41:46;3.80;95.30
9151;DHT22;4610;50.006;7.490;2023-02-28T13:44:15;3.80;94.50
9151;DHT22;4610;50.006;7.490;2023-02-28T13:47:22;3.70;94.00
9151;DHT22;4610;50.006;7.490;2023-02-28T13:49:51;3.60;94.30
9151;DHT22;4610;50.006;7.490;2023-02-28T13:52:21;3.70;95.10
9151;DHT22;4610;50.006;7.490;2023-02-28T13:55:13;3.80;94.90
9151;DHT22;4610;50.006;7.490;2023-02-28T13:58:03;3.80;96.00
9151;DHT22;4610;50.006;7.490;2023-02-28T14:00:41;3.90;96.30
9151;DHT22;4610;50.006;7.490;2023-02-28T14:06:15;3.80;95.80
9151;DHT22;4610;50.006;7.490;2023-02-28T14:08:52;3.80;96.60
9151;DHT22;4610;50.006;7.490;2023-02-28T14:11:29;3.90;96.50
9151;DHT22;4610;50.006;7.490;2023-02-28T14:13:56;3.90;95.50
9151;DHT22;4610;50.006;7.490;2023-02-28T14:16:25;3.70;95.50
9151;DHT22;4610;50.006;7.490;2023-02-28T14:18:58;3.70;95.50
9151;DHT22;4610;50.006;7.490;2023-02-28T14:21:29;3.60;95.90
9151;DHT22;4610;50.006;7.490;2023-02-28T14:24:24;3.60;96.00
9151;DHT22;4610;50.006;7.490;2023-02-28T14:30:25;3.60;95.80
9151;DHT22;4610;50.006;7.490;2023-02-28T14:33:08;3.90;99.90
9151;DHT22;4610;50.006;7.490;2023-02-28T14:36:07;4.40;97.40
9151;DHT22;4610;50.006;7.490;2023-02-28T14:38:41;4.30;97.50
9151;DHT22;4610;50.006;7.490;2023-02-28T14:41:16;4.10;97.10
9151;DHT22;4610;50.006;7.490;2023-02-28T14:43:55;4.00;97.10
9151;DHT22;4610;50.006;7.490;2023-02-28T14:46:25;3.90;96.70
9151;DHT22;4610;50.006;7.490;2023-02-28T14:48:53;3.80;96.70
9151;DHT22;4610;50.006;7.490;2023-02-28T14:51:22;3.70;96.50
9151;DHT22;4610;50.006;7.490;2023-02-28T14:53:51;3.60;97.20
9151;DHT22;4610;50.006;7.490;2023-02-28T14:56:24;3.60;97.30
9151;DHT22;4610;50.006;7.490;2023-02-28T14:58:53;3.60;97.30
9151;DHT22;4610;50.006;7.490;2023-02-28T15:01:22;3.60;96.40
9151;DHT22;4610;50.006;7.490;2023-02-28T15:03:57;3.70;97.30
9151;DHT22;4610;50.006;7.490;2023-02-28T15:06:26;3.70;98.00
9151;DHT22;4610;50.006;7.490;2023-02-28T15:09:08;3.70;96.90
9151;DHT22;4610;50.006;7.490;2023-02-28T15:11:35;3.70;97.20
9151;DHT22;4610;50.006;7.490;2023-02-28T15:14:04;3.70;97.30
9151;DHT22;4610;50.006;7.490;2023-02-28T15:16:34;3.60;97.10
9151;DHT22;4610;50.006;7.490;2023-02-28T15:19:06;3.50;96.80
9151;DHT22;4610;50.006;7.490;2023-02-28T15:21:37;3.30;96.50
9151;DHT22;4610;50.006;7.490;2023-02-28T15:24:10;3.40;97.00
9151;DHT22;4610;50.006;7.490;2023-02-28T15:26:41;3.40;96.90
9151;DHT22;4610;50.006;7.490;2023-02-28T15:29:13;3.50;96.80
9151;DHT22;4610;50.006;7.490;2023-02-28T15:31:45;4.20;99.60
9151;DHT22;4610;50.006;7.490;2023-02-28T15:34:19;4.20;97.30
9151;DHT22;4610;50.006;7.490;2023-02-28T15:36:48;3.90;97.50
9151;DHT22;4610;50.006;7.490;2023-02-28T15:39:20;3.80;97.70
9151;DHT22;4610;50.006;7.490;2023-02-28T15:41:47;3.70;97.10
9151;DHT22;4610;50.006;7.490;2023-02-28T15:44:17;3.60;97.80
9151;DHT22;4610;50.006;7.490;2023-02-28T15:46:54;3.60;97.70
9151;DHT22;4610;50.006;7.490;2023-02-28T15:49:22;3.60;97.40
9151;DHT22;4610;50.006;7.490;2023-02-28T15:51:52;3.50;97.40
9151;DHT22;4610;50.006;7.490;2023-02-28T15:54:22;3.50;97.50
9151;DHT22;4610;50.006;7.490;2023-02-28T15:56:51;3.50;97.90
9151;DHT22;4610;50.006;7.490;2023-02-28T15:59:22;3.40;97.30
9151;DHT22;4610;50.006;7.490;2023-02-28T16:02:14;3.10;97.40
9151;DHT22;4610;50.006;7.490;2023-02-28T16:05:00;2.90;97.60
9151;DHT22;4610;50.006;7.490;2023-02-28T16:07:28;2.90;98.00
9151;DHT22;4610;50.006;7.490;2023-02-28T16:09:55;2.90;98.50
9151;DHT22;4610;50.006;7.490;2023-02-28T16:12:26;3.00;99.20
9151;DHT22;4610;50.006;7.490;2023-02-28T16:14:56;3.00;98.90
9151;DHT22;4610;50.006;7.490;2023-02-28T16:17:25;3.10;99.20
9151;DHT22;4610;50.006;7.490;2023-02-28T16:19:53;3.10;99.10
9151;DHT22;4610;50.006;7.490;2023-02-28T16:22:19;3.00;99.60
9151;DHT22;4610;50.006;7.490;2023-02-28T16:24:48;3.00;99.40
9151;DHT22;4610;50.006;7.490;2023-02-28T16:27:18;3.00;99.50
9151;DHT22;4610;50.006;7.490;2023-02-28T16:29:47;2.90;99.70
9151;DHT22;4610;50.006;7.490;2023-02-28T16:32:15;2.90;99.40
9151;DHT22;4610;50.006;7.490;2023-02-28T16:34:43;2.80;99.90
9151;DHT22;4610;50.006;7.490;2023-02-28T16:37:12;2.70;99.90
9151;DHT22;4610;50.006;7.490;2023-02-28T16:39:40;2.60;99.90
9151;DHT22;4610;50.006;7.490;2023-02-28T16:42:12;2.50;99.90
9151;DHT22;4610;50.006;7.490;2023-02-28T16:44:41;2.40;99.90
9151;DHT22;4610;50.006;7.490;2023-02-28T16:47:10;2.50;99.90
9151;DHT22;4610;50.006;7.490;2023-02-28T16:49:37;2.50;99.90
9151;DHT22;4610;50.006;7.490;2023-02-28T16:52:05;2.50;99.90
9151;DHT22;4610;50.006;7.490;2023-02-28T16:54:32;2.50;99.90
9151;DHT22;4610;50.006;7.490;2023-02-28T16:56:59;2.50;99.90
9151;DHT22;4610;50.006;7.490;2023-02-28T16:59:28;2.50;99.90
9151;DHT22;4610;50.006;7.490;2023-02-28T17:01:55;2.50;99.90
9151;DHT22;4610;50.006;7.490;2023-02-28T17:04:23;2.40;99.90
9151;DHT22;4610;50.006;7.490;2023-02-28T17:06:50;2.40;99.90
9151;DHT22;4610;50.006;7.490;2023-02-28T17:09:18;2.20;99.90
9151;DHT22;4610;50.006;7.490;2023-02-28T17:11:46;2.10;99.90
9151;DHT22;4610;50.006;7.490;2023-02-28T17:14:13;2.00;99.90
9151;DHT22;4610;50.006;7.490;2023-02-28T17:16:42;1.90;99.90
9151;DHT22;4610;50.006;7.490;2023-02-28T17:19:11;2.00;99.90
9151;DHT22;4610;50.006;7.490;2023-02-28T17:21:39;1.90;99.90
9151;DHT22;4610;50.006;7.490;2023-02-28T17:24:09;2.00;99.90
9151;DHT22;4610;50.006;7.490;2023-02-28T17:26:37;2.10;99.90
9151;DHT22;4610;50.006;7.490;2023-02-28T17:29:09;2.10;99.90
9151;DHT22;4610;50.006;7.490;2023-02-28T17:31:37;2.10;99.90
9151;DHT22;4610;50.006;7.490;2023-02-28T17:34:06;2.10;99.90
9151;DHT22;4610;50.006;7.490;2023-02-28T17:36:34;2.00;99.90
9151;DHT22;4610;50.006;7.490;2023-02-28T17:39:02;2.40;99.90
9151;DHT22;4610;50.006;7.490;2023-02-28T17:41:30;2.30;99.90
9151;DHT22;4610;50.006;7.490;2023-02-28T17:43:56;2.10;99.90
9151;DHT22;4610;50.006;7.490;2023-02-28T17:46:24;2.00;99.90
9151;DHT22;4610;50.006;7.490;2023-02-28T17:48:52;1.80;99.90
9151;DHT22;4610;50.006;7.490;2023-02-28T17:51:22;1.80;99.90
9151;DHT22;4610;50.006;7.490;2023-02-28T17:53:49;1.80;99.90
9151;DHT22;4610;50.006;7.490;2023-02-28T17:56:19;1.70;99.90
9151;DHT22;4610;50.006;7.490;2023-02-28T17:58:46;1.80;99.90
9151;DHT22;4610;50.006;7.490;2023-02-28T18:01:13;1.80;99.90
9151;DHT22;4610;50.006;7.490;2023-02-28T18:03:40;1.70;99.90
9151;DHT22;4610;50.006;7.490;2023-02-28T18:06:13;1.70;99.90
9151;DHT22;4610;50.006;7.490;2023-02-28T18:08:42;1.70;99.90
9151;DHT22;4610;50.006;7.490;2023-02-28T18:11:09;1.70;99.90
9151;DHT22;4610;50.006;7.490;2023-02-28T18:13:43;1.80;99.90
9151;DHT22;4610;50.006;7.490;2023-02-28T18:16:11;1.70;99.90
9151;DHT22;4610;50.006;7.490;2023-02-28T18:18:38;1.60;99.90
9151;DHT22;4610;50.006;7.490;2023-02-28T18:21:05;1.60;99.90
9151;DHT22;4610;50.006;7.490;2023-02-28T18:23:32;1.60;99.90
9151;DHT22;4610;50.006;7.490;2023-02-28T18:26:01;1.50;99.90
9151;DHT22;4610;50.006;7.490;2023-02-28T18:28:27;1.50;99.90
9151;DHT22;4610;50.006;7.490;2023-02-28T18:30:54;1.50;99.90
9151;DHT22;4610;50.006;7.490;2023-02-28T18:33:21;1.50;99.90
9151;DHT22;4610;50.006;7.490;2023-02-28T18:35:55;1.40;99.90
9151;DHT22;4610;50.006;7.490;2023-02-28T18:38:22;1.20;99.90
9151;DHT22;4610;50.006;7.490;2023-02-28T18:40:53;1.20;99.90
9151;DHT22;4610;50.006;7.490;2023-02-28T18:43:22;1.10;99.90
9151;DHT22;4610;50.006;7.490;2023-02-28T18:45:49;1.00;99.90
9151;DHT22;4610;50.006;7.490;2023-02-28T18:48:16;1.00;99.90
9151;DHT22;4610;50.006;7.490;2023-02-28T18:50:44;0.90;99.90
9151;DHT22;4610;50.006;7.490;2023-02-28T18:53:10;1.00;99.90
9151;DHT22;4610;50.006;7.490;2023-02-28T18:55:38;0.90;99.90
9151;DHT22;4610;50.006;7.490;2023-02-28T18:58:04;0.90;99.90
9151;DHT22;4610;50.006;7.490;2023-02-28T19:00:33;1.00;99.90
9151;DHT22;4610;50.006;7.490;2023-02-28T19:03:00;1.00;99.90
9151;DHT22;4610;50.006;7.490;2023-02-28T19:05:27;1.00;99.90
9151;DHT22;4610;50.006;7.490;2023-02-28T19:07:57;1.00;99.90
9151;DHT22;4610;50.006;7.490;2023-02-28T19:10:24;1.70;99.90
9151;DHT22;4610;50.006;7.490;2023-02-28T19:12:51;1.70;99.90
9151;DHT22;4610;50.006;7.490;2023-02-28T19:15:19;1.50;99.90
9151;DHT22;4610;50.006;7.490;2023-02-28T19:17:47;1.40;99.90
9151;DHT22;4610;50.006;7.490;2023-02-28T19:20:14;1.30;99.90
9151;DHT22;4610;50.006;7.490;2023-02-28T19:22:41;1.00;99.90
9151;DHT22;4610;50.006;7.490;2023-02-28T19:25:09;0.90;99.90
9151;DHT22;4610;50.006;7.490;2023-02-28T19:27:36;0.80;99.90
9151;DHT22;4610;50.006;7.490;2023-02-28T19:30:03;0.70;99.90
9151;DHT22;4610;50.006;7.490;2023-02-28T19:32:31;0.60;99.90
9151;DHT22;4610;50.006;7.490;2023-02-28T19:34:59;0.40;99.90
9151;DHT22;4610;50.006;7.490;2023-02-28T19:37:27;0.40;99.90
9151;DHT22;4610;50.006;7.490;2023-02-28T19:39:53;0.30;99.90
9151;DHT22;4610;50.006;7.490;2023-02-28T19:42:22;0.30;99.90